Time;durP1;ratioP1;P1;durP2;ratioP2;P2;SDS_P1;SDS_P2;PMS_P1;PMS_P2;Temp;Humidity;BMP_temperature;BMP_pressure;BME280_temperature;BME280_humidity;BME280_pressure;Samples;Min_cycle;Max_cycle;Signal;HPM_P1;HPM_P2
2023/01/13 00:00:10;;;;;;;;;;;;;;;-6.70;76.64;100537.38;4965361;28;19936;-66
2023/01/13 00:02:39;;;;;;;;;;;;;;;-6.73;76.70;100527.84;4980526;28;20385;-66
2023/01/13 00:05:04;;;;;;;;;;;;;;;-6.73;76.74;100521.69;4964888;28;19930;-66
2023/01/13 00:07:30;;;;;;;;;;;;;;;-6.72;76.89;100537.50;4980122;28;19930;-66
2023/01/13 00:09:56;;;;;;;;;;;;;;;-6.68;76.59;100539.88;4976689;28;20005;-66
2023/01/13 00:12:21;;;;;;;;;;;;;;;-6.67;76.67;100536.25;4965021;28;19949;-67
2023/01/13 00:14:48;;;;;;;;;;;;;;;-6.64;76.77;100534.13;4947695;28;19930;-68
2023/01/13 00:17:14;;;;;;;;;;;;;;;-6.63;76.70;100550.94;4963820;28;20416;-66
2023/01/13 00:19:40;;;;;;;;;;;;;;;-6.65;76.65;100539.59;4965071;28;19989;-66
2023/01/13 00:22:06;;;;;;;;;;;;;;;-6.63;76.64;100538.47;4963973;28;19930;-66
2023/01/13 00:24:31;;;;;;;;;;;;;;;-6.64;76.56;100531.44;4947137;28;20476;-65
2023/01/13 00:26:57;;;;;;;;;;;;;;;-6.66;76.77;100544.06;4964549;28;19934;-63
2023/01/13 00:29:23;;;;;;;;;;;;;;;-6.68;77.04;100518.59;4965030;28;19934;-66
2023/01/13 00:31:50;;;;;;;;;;;;;;;-6.63;76.91;100521.66;4964035;28;19930;-66
2023/01/13 00:34:16;;;;;;;;;;;;;;;-6.57;76.66;100529.91;4966491;28;19934;-66
2023/01/13 00:36:42;;;;;;;;;;;;;;;-6.55;76.68;100535.91;4948544;28;20476;-66
2023/01/13 00:39:08;;;;;;;;;;;;;;;-6.55;76.55;100524.44;4964840;28;20041;-62
2023/01/13 00:43:21;;;;;;;;;;;;;;;-6.55;76.50;100525.28;4965609;28;19930;-67
2023/01/13 00:44:19;;;;;;;;;;;;;;;-6.49;76.55;100538.97;4948271;28;20032;-66
2023/01/13 00:46:45;;;;;;;;;;;;;;;-6.49;76.63;100518.53;4964264;28;20013;-60
2023/01/13 00:49:12;;;;;;;;;;;;;;;-6.47;76.43;100531.72;4963574;28;19960;-60
2023/01/13 00:51:38;;;;;;;;;;;;;;;-6.47;76.44;100510.41;4964724;28;19930;-60
2023/01/13 00:54:04;;;;;;;;;;;;;;;-6.49;76.44;100521.19;4968829;28;19930;-66
2023/01/13 00:56:29;;;;;;;;;;;;;;;-6.49;76.57;100518.53;4967232;28;19930;-68
2023/01/13 00:58:57;;;;;;;;;;;;;;;-6.48;76.52;100524.69;4965604;28;19941;-67
2023/01/13 01:01:24;;;;;;;;;;;;;;;-6.49;76.58;100526.53;4965349;28;20451;-67
2023/01/13 01:03:50;;;;;;;;;;;;;;;-6.52;76.81;100521.50;4963147;28;19989;-66
2023/01/13 01:06:18;;;;;;;;;;;;;;;-6.53;76.81;100506.50;4966131;28;19934;-67
2023/01/13 01:08:44;;;;;;;;;;;;;;;-6.52;76.92;100510.00;4965821;28;19981;-66
2023/01/13 01:11:11;;;;;;;;;;;;;;;-6.49;76.71;100497.25;4967003;28;19930;-66
2023/01/13 01:13:37;;;;;;;;;;;;;;;-6.45;76.63;100503.13;4964816;28;19951;-66
2023/01/13 01:16:05;;;;;;;;;;;;;;;-6.49;76.68;100501.72;4965140;28;20401;-66
2023/01/13 01:18:32;;;;;;;;;;;;;;;-6.49;76.84;100489.25;4962859;28;20024;-67
2023/01/13 01:20:58;;;;;;;;;;;;;;;-6.47;76.79;100499.78;4960162;28;19930;-66
2023/01/13 01:23:26;;;;;;;;;;;;;;;-6.44;76.76;100473.69;4962203;28;19930;-66
2023/01/13 01:25:52;;;;;;;;;;;;;;;-6.45;76.76;100487.97;4964504;28;19934;-66
2023/01/13 01:28:19;;;;;;;;;;;;;;;-6.49;76.86;100475.97;4961487;28;19937;-66
2023/01/13 01:30:45;;;;;;;;;;;;;;;-6.48;76.98;100506.91;4966141;28;19930;-66
2023/01/13 01:33:11;;;;;;;;;;;;;;;-6.50;76.65;100487.59;4964866;28;20005;-66
2023/01/13 01:35:38;;;;;;;;;;;;;;;-6.54;77.00;100486.22;4965438;28;20361;-67
2023/01/13 01:38:03;;;;;;;;;;;;;;;-6.53;77.04;100469.25;4966165;28;20242;-60
2023/01/13 01:40:30;;;;;;;;;;;;;;;-6.56;77.42;100469.53;4979631;28;20013;-66
2023/01/13 01:45:40;;;;;;;;;;;;;;;-6.50;77.53;100492.91;4983876;28;20361;-61
2023/01/13 01:48:07;;;;;;;;;;;;;;;-6.48;77.23;100471.47;4966530;28;20654;-59
2023/01/13 01:50:33;;;;;;;;;;;;;;;-6.52;77.20;100465.63;4943676;28;19941;-66
2023/01/13 01:53:04;;;;;;;;;;;;;;;-6.52;77.49;100452.31;4976420;28;19937;-62
2023/01/13 01:55:32;;;;;;;;;;;;;;;-6.51;77.11;100461.97;4983029;28;20442;-61
2023/01/13 01:58:01;;;;;;;;;;;;;;;-6.51;77.21;100467.28;4965859;28;19938;-60
2023/01/13 02:00:31;;;;;;;;;;;;;;;-6.50;77.47;100457.47;4965387;28;19934;-61
2023/01/13 02:02:58;;;;;;;;;;;;;;;-6.60;77.48;100422.91;4964940;28;19934;-67
2023/01/13 02:05:24;;;;;;;;;;;;;;;-6.43;77.33;100451.41;4965881;28;19930;-61
2023/01/13 02:07:55;;;;;;;;;;;;;;;-6.40;77.10;100447.63;4963584;28;20029;-60
2023/01/13 02:10:24;;;;;;;;;;;;;;;-6.39;76.97;100440.50;4961669;28;20030;-60
2023/01/13 02:12:52;;;;;;;;;;;;;;;-6.45;77.10;100429.44;4963177;28;19930;-67
2023/01/13 02:15:20;;;;;;;;;;;;;;;-6.49;77.61;100420.06;4964534;28;19977;-61
2023/01/13 02:17:59;;;;;;;;;;;;;;;-6.49;77.54;100438.69;4979992;28;19972;-67
2023/01/13 02:20:34;;;;;;;;;;;;;;;-6.50;77.65;100446.81;4956519;28;19957;-67
2023/01/13 02:24:52;;;;;;;;;;;;;;;-6.49;77.74;100452.00;4945654;28;19937;-66
2023/01/13 02:26:10;;;;;;;;;;;;;;;-6.47;77.52;100430.59;4959736;28;19930;-66
2023/01/13 02:31:43;;;;;;;;;;;;;;;-6.51;77.46;100432.69;4956466;28;19930;-61
2023/01/13 02:34:10;;;;;;;;;;;;;;;-6.50;77.68;100441.50;4960798;28;19937;-60
2023/01/13 02:36:38;;;;;;;;;;;;;;;-6.51;77.70;100445.16;4962641;28;19934;-60
2023/01/13 02:39:08;;;;;;;;;;;;;;;-6.52;77.81;100432.81;4960178;28;20119;-61
2023/01/13 02:44:25;;;;;;;;;;;;;;;-6.42;77.82;100449.59;4961914;28;20521;-60
2023/01/13 02:46:54;;;;;;;;;;;;;;;-6.39;77.27;100433.31;4963349;28;19929;-59
2023/01/13 02:49:24;;;;;;;;;;;;;;;-6.42;77.17;100444.28;4961408;28;19993;-61
2023/01/13 02:51:51;;;;;;;;;;;;;;;-6.40;77.27;100434.31;4961181;28;19953;-60
2023/01/13 02:54:19;;;;;;;;;;;;;;;-6.41;77.07;100453.94;4962396;28;19940;-60
2023/01/13 02:56:47;;;;;;;;;;;;;;;-6.41;77.03;100437.97;4963688;28;19933;-66
2023/01/13 02:59:13;;;;;;;;;;;;;;;-6.39;76.81;100425.34;4961637;28;20041;-66
2023/01/13 03:01:39;;;;;;;;;;;;;;;-6.41;77.08;100454.75;4977359;28;19937;-66
2023/01/13 03:04:13;;;;;;;;;;;;;;;-6.44;76.94;100439.09;4978110;28;19930;-66
2023/01/13 03:06:46;;;;;;;;;;;;;;;-6.42;76.90;100434.44;4947668;28;19930;-59
2023/01/13 03:09:17;;;;;;;;;;;;;;;-6.43;76.64;100448.75;4964136;28;19930;-60
2023/01/13 03:11:47;;;;;;;;;;;;;;;-6.44;76.87;100441.75;4960143;28;19930;-62
2023/01/13 03:14:20;;;;;;;;;;;;;;;-6.41;76.79;100441.44;4977344;28;19938;-59
2023/01/13 03:16:51;;;;;;;;;;;;;;;-6.37;76.86;100444.66;4973881;28;20011;-60
2023/01/13 03:19:25;;;;;;;;;;;;;;;-6.39;76.59;100435.16;4960785;28;19948;-60
2023/01/13 03:21:55;;;;;;;;;;;;;;;-6.43;76.46;100438.09;4964136;28;19930;-60
2023/01/13 03:24:24;;;;;;;;;;;;;;;-6.45;76.04;100440.06;4963731;28;19930;-57
2023/01/13 03:26:52;;;;;;;;;;;;;;;-6.48;76.04;100420.91;4962238;28;20034;-61
2023/01/13 03:29:20;;;;;;;;;;;;;;;-6.53;76.16;100418.69;4960932;28;20349;-60
2023/01/13 03:31:51;;;;;;;;;;;;;;;-6.53;76.00;100420.50;4946683;28;19930;-59
2023/01/13 03:34:20;;;;;;;;;;;;;;;-6.51;75.96;100439.81;4966473;28;19930;-66
2023/01/13 03:36:49;;;;;;;;;;;;;;;-6.51;75.80;100432.69;4966728;28;20049;-66
2023/01/13 03:39:19;;;;;;;;;;;;;;;-6.53;75.93;100429.34;4966846;28;20413;-66
2023/01/13 03:41:47;;;;;;;;;;;;;;;-6.50;76.23;100437.03;4967469;28;20398;-66
2023/01/13 03:44:21;;;;;;;;;;;;;;;-6.50;76.05;100441.50;4966108;28;19930;-66
2023/01/13 03:46:51;;;;;;;;;;;;;;;-6.52;75.90;100449.66;4966831;28;19934;-66
2023/01/13 03:49:19;;;;;;;;;;;;;;;-6.54;75.97;100417.03;4966308;28;19930;-66
2023/01/13 03:51:47;;;;;;;;;;;;;;;-6.51;75.95;100416.72;4966028;28;19934;-59
2023/01/13 03:54:16;;;;;;;;;;;;;;;-6.51;75.93;100430.03;4965006;28;20025;-61
2023/01/13 03:56:44;;;;;;;;;;;;;;;-6.52;76.07;100408.88;4965393;28;19930;-67
2023/01/13 03:59:13;;;;;;;;;;;;;;;-6.51;76.24;100414.06;4964185;28;20420;-60
2023/01/13 04:01:44;;;;;;;;;;;;;;;-6.51;76.16;100431.84;4970467;28;19930;-60
2023/01/13 04:04:15;;;;;;;;;;;;;;;-6.45;76.15;100421.44;4981429;28;19930;-59
2023/01/13 04:06:46;;;;;;;;;;;;;;;-6.45;75.81;100424.09;4985878;28;19934;-59
2023/01/13 04:09:14;;;;;;;;;;;;;;;-6.45;75.82;100448.06;4968297;28;20192;-66
2023/01/13 04:11:45;;;;;;;;;;;;;;;-6.44;75.63;100438.25;4969553;28;19937;-66
2023/01/13 04:14:13;;;;;;;;;;;;;;;-6.46;75.52;100440.25;4962731;28;19941;-67
2023/01/13 04:16:39;;;;;;;;;;;;;;;-6.46;75.55;100430.41;4983276;28;20041;-59
2023/01/13 04:19:05;;;;;;;;;;;;;;;-6.47;75.64;100434.06;4963933;28;20037;-60
2023/01/13 04:21:32;;;;;;;;;;;;;;;-6.46;75.46;100449.03;4963914;28;19934;-60
2023/01/13 04:23:58;;;;;;;;;;;;;;;-6.49;75.19;100441.34;4964713;28;19983;-60
2023/01/13 04:26:24;;;;;;;;;;;;;;;-6.53;75.47;100416.03;4968805;28;19996;-62
2023/01/13 04:28:53;;;;;;;;;;;;;;;-6.54;75.38;100433.00;4979892;28;19930;-63
2023/01/13 04:31:19;;;;;;;;;;;;;;;-6.56;75.60;100419.81;4964347;28;19930;-60
2023/01/13 04:33:45;;;;;;;;;;;;;;;-6.55;75.74;100426.00;4965271;28;19960;-61
2023/01/13 04:36:10;;;;;;;;;;;;;;;-6.56;75.81;100424.28;4968516;28;19930;-61
2023/01/13 04:38:36;;;;;;;;;;;;;;;-6.59;75.64;100428.09;4966502;28;20334;-61
2023/01/13 04:41:02;;;;;;;;;;;;;;;-6.59;75.84;100441.41;4961740;28;20610;-61
2023/01/13 04:43:28;;;;;;;;;;;;;;;-6.59;75.96;100437.91;4963746;28;19937;-66
2023/01/13 04:45:55;;;;;;;;;;;;;;;-6.62;75.92;100451.50;4963381;28;19957;-66
2023/01/13 04:48:21;;;;;;;;;;;;;;;-6.61;75.85;100426.56;4616883;28;10000228;-60
2023/01/13 04:50:47;;;;;;;;;;;;;;;-6.61;75.81;100429.22;4961503;28;19994;-66
2023/01/13 04:53:12;;;;;;;;;;;;;;;-6.59;75.69;100432.56;4956954;28;20444;-65
2023/01/13 04:55:38;;;;;;;;;;;;;;;-6.58;75.69;100439.56;4975104;28;20281;-66
2023/01/13 04:58:05;;;;;;;;;;;;;;;-6.55;75.80;100450.75;4963455;28;20028;-66
2023/01/13 05:00:30;;;;;;;;;;;;;;;-6.53;75.52;100421.34;4980940;28;19930;-66
2023/01/13 05:02:58;;;;;;;;;;;;;;;-6.52;75.45;100430.16;4963953;28;19937;-66
2023/01/13 05:05:24;;;;;;;;;;;;;;;-6.49;75.55;100430.72;4966236;28;19988;-66
2023/01/13 05:07:50;;;;;;;;;;;;;;;-6.49;75.35;100429.88;4964173;28;20317;-66
2023/01/13 05:10:16;;;;;;;;;;;;;;;-6.47;75.53;100455.34;4965313;28;19941;-67
2023/01/13 05:18:12;;;;;;;;;;;;;;;-6.62;75.48;100478.97;4978285;28;20356;-66
2023/01/13 05:20:38;;;;;;;;;;;;;;;-6.65;75.59;100457.94;4959638;28;19934;-67
2023/01/13 05:25:49;;;;;;;;;;;;;;;-6.57;75.75;100475.84;4956511;28;19937;-66
2023/01/13 05:28:14;;;;;;;;;;;;;;;-6.59;75.52;100465.34;4955587;28;20360;-66
2023/01/13 05:30:41;;;;;;;;;;;;;;;-6.60;75.65;100479.66;4955383;28;20029;-66
2023/01/13 05:33:08;;;;;;;;;;;;;;;-6.61;76.01;100463.81;4952617;28;19941;-68
2023/01/13 05:35:36;;;;;;;;;;;;;;;-6.55;75.78;100466.72;4954464;28;20358;-60
2023/01/13 05:38:01;;;;;;;;;;;;;;;-6.51;76.00;100472.59;4944952;28;19930;-61
2023/01/13 05:43:18;;;;;;;;;;;;;;;-6.49;75.73;100467.13;4951484;28;20061;-58
2023/01/13 05:45:45;;;;;;;;;;;;;;;-6.49;75.69;100483.09;4953542;28;20032;-61
2023/01/13 05:48:11;;;;;;;;;;;;;;;-6.49;75.70;100454.66;4960486;28;19937;-61
2023/01/13 05:50:38;;;;;;;;;;;;;;;-6.51;75.67;100461.13;4959903;28;19930;-61
2023/01/13 05:53:04;;;;;;;;;;;;;;;-6.54;75.79;100451.63;4974035;28;20345;-60
2023/01/13 05:55:30;;;;;;;;;;;;;;;-6.51;76.01;100461.13;4921904;29;20026;-60
2023/01/13 05:57:56;;;;;;;;;;;;;;;-6.45;75.63;100458.69;4930274;29;19930;-61
2023/01/13 06:00:22;;;;;;;;;;;;;;;-6.39;75.52;100457.28;4928958;28;19931;-60
2023/01/13 06:02:48;;;;;;;;;;;;;;;-6.38;75.49;100463.47;4928860;29;20401;-60
2023/01/13 06:05:14;;;;;;;;;;;;;;;-6.41;75.63;100456.59;4930530;29;19930;-66
2023/01/13 06:07:41;;;;;;;;;;;;;;;-6.39;75.53;100459.94;4928980;29;19950;-66
2023/01/13 06:10:08;;;;;;;;;;;;;;;-6.38;75.60;100458.13;4929348;29;19986;-66
2023/01/13 06:12:33;;;;;;;;;;;;;;;-6.37;75.36;100462.47;4926253;29;20395;-66
2023/01/13 06:14:59;;;;;;;;;;;;;;;-6.37;75.26;100462.47;4926690;29;19990;-66
2023/01/13 06:17:25;;;;;;;;;;;;;;;-6.37;75.65;100465.13;4919580;29;19978;-66
2023/01/13 06:19:51;;;;;;;;;;;;;;;-6.35;75.57;100461.31;4943609;28;19931;-66
2023/01/13 06:22:18;;;;;;;;;;;;;;;-6.35;75.22;100463.16;4943146;29;19931;-66
2023/01/13 06:24:45;;;;;;;;;;;;;;;-6.41;75.36;100460.06;4925459;29;20037;-66
2023/01/13 06:27:13;;;;;;;;;;;;;;;-6.42;75.46;100452.25;4920731;29;21467;-66
2023/01/13 06:29:40;;;;;;;;;;;;;;;-6.42;75.38;100466.38;4935707;29;19937;-66
2023/01/13 06:32:10;;;;;;;;;;;;;;;-6.45;75.31;100453.38;4904210;29;19978;-66
2023/01/13 06:34:36;;;;;;;;;;;;;;;-6.48;75.34;100461.66;4920109;29;19934;-66
2023/01/13 06:37:02;;;;;;;;;;;;;;;-6.54;75.21;100456.94;4920756;29;19937;-66
2023/01/13 06:39:30;;;;;;;;;;;;;;;-6.51;75.30;100447.81;4923744;29;19937;-66
2023/01/13 06:44:41;;;;;;;;;;;;;;;-6.51;75.00;100458.44;4932289;29;20314;-66
2023/01/13 06:47:07;;;;;;;;;;;;;;;-6.51;75.29;100451.31;4930808;28;19931;-66
2023/01/13 06:49:33;;;;;;;;;;;;;;;-6.50;75.33;100452.13;4942563;28;20274;-66
2023/01/13 06:51:59;;;;;;;;;;;;;;;-6.53;75.22;100455.09;4932074;29;20314;-66
2023/01/13 06:54:24;;;;;;;;;;;;;;;-6.57;75.46;100450.09;4951799;28;20158;-66
2023/01/13 06:56:50;;;;;;;;;;;;;;;-6.56;75.49;100449.09;4969732;28;19930;-66
2023/01/13 06:59:17;;;;;;;;;;;;;;;-6.49;75.55;100448.50;4967836;28;20420;-66
2023/01/13 07:01:43;;;;;;;;;;;;;;;-6.46;75.38;100449.03;4967705;28;19937;-67
2023/01/13 07:04:08;;;;;;;;;;;;;;;-6.38;74.75;100460.78;4970992;28;19930;-66
2023/01/13 07:06:34;;;;;;;;;;;;;;;-6.38;74.94;100455.47;4958268;28;19937;-66
2023/01/13 07:09:00;;;;;;;;;;;;;;;-6.35;74.67;100453.31;4972342;28;19930;-66
2023/01/13 07:11:25;;;;;;;;;;;;;;;-6.38;74.92;100458.94;4970770;28;19953;-66
2023/01/13 07:16:37;;;;;;;;;;;;;;;-6.43;74.83;100455.91;4971617;28;20372;-66
2023/01/13 07:19:02;;;;;;;;;;;;;;;-6.44;74.94;100457.72;4970908;28;19930;-66
2023/01/13 07:21:28;;;;;;;;;;;;;;;-6.41;74.88;100460.06;4971031;28;20512;-66
2023/01/13 07:23:54;;;;;;;;;;;;;;;-6.37;74.94;100443.84;4987297;28;19969;-66
2023/01/13 07:26:19;;;;;;;;;;;;;;;-6.36;74.86;100459.63;4972859;28;19930;-66
2023/01/13 07:28:45;;;;;;;;;;;;;;;-6.35;74.89;100452.50;4985319;28;20265;-66
2023/01/13 07:31:15;;;;;;;;;;;;;;;-6.31;74.86;100457.41;4971960;28;19934;-66
2023/01/13 07:33:43;;;;;;;;;;;;;;;-6.29;74.51;100486.50;4971245;28;19934;-66
2023/01/13 07:36:09;;;;;;;;;;;;;;;-6.32;74.44;100455.72;4987010;28;20405;-66
2023/01/13 07:38:35;;;;;;;;;;;;;;;-6.31;74.70;100459.19;4971567;28;19942;-66
2023/01/13 07:43:45;;;;;;;;;;;;;;;-6.24;74.45;100484.25;4971013;28;19930;-66
2023/01/13 07:46:11;;;;;;;;;;;;;;;-6.20;74.27;100469.66;4972777;28;20294;-66
2023/01/13 07:48:37;;;;;;;;;;;;;;;-6.15;74.09;100461.22;4970007;28;20409;-66
2023/01/13 07:51:05;;;;;;;;;;;;;;;-6.14;74.23;100473.56;4969958;28;19934;-67
2023/01/13 07:53:31;;;;;;;;;;;;;;;-6.08;74.13;100466.81;4970229;28;19930;-66
2023/01/13 07:55:57;;;;;;;;;;;;;;;-6.08;73.71;100482.78;4970914;28;20320;-67
2023/01/13 07:58:23;;;;;;;;;;;;;;;-6.09;73.67;100491.72;4971815;28;20196;-66
2023/01/13 08:00:49;;;;;;;;;;;;;;;-6.12;73.62;100492.88;4969966;28;19933;-66
2023/01/13 08:03:15;;;;;;;;;;;;;;;-6.13;73.52;100494.69;4970843;28;19930;-66
2023/01/13 08:05:40;;;;;;;;;;;;;;;-6.17;73.51;100472.03;4967503;28;20033;-67
2023/01/13 08:08:08;;;;;;;;;;;;;;;-6.19;73.46;100483.78;4967230;28;19931;-66
2023/01/13 08:10:34;;;;;;;;;;;;;;;-6.27;73.68;100493.38;4951788;28;19978;-66
2023/01/13 08:15:44;;;;;;;;;;;;;;;-6.23;73.41;100469.09;4968804;28;19937;-66
2023/01/13 08:18:10;;;;;;;;;;;;;;;-6.23;73.15;100479.75;4970749;28;19933;-66
2023/01/13 08:20:36;;;;;;;;;;;;;;;-6.25;73.29;100482.56;4968620;28;19930;-66
2023/01/13 08:23:02;;;;;;;;;;;;;;;-6.24;73.18;100470.09;4970861;28;20232;-66
2023/01/13 08:25:29;;;;;;;;;;;;;;;-6.21;73.30;100473.31;4970747;28;19930;-66
2023/01/13 08:27:55;;;;;;;;;;;;;;;-6.16;73.33;100476.34;4971011;28;19930;-66
2023/01/13 08:30:21;;;;;;;;;;;;;;;-6.13;73.00;100496.53;4969538;28;19980;-66
2023/01/13 08:32:48;;;;;;;;;;;;;;;-6.15;73.10;100478.03;4972702;28;19936;-66
2023/01/13 08:35:14;;;;;;;;;;;;;;;-6.15;73.02;100499.34;4985191;28;19930;-66
2023/01/13 08:37:41;;;;;;;;;;;;;;;-6.14;72.84;100468.22;4953974;28;20414;-66
2023/01/13 08:40:07;;;;;;;;;;;;;;;-6.11;73.10;100486.56;4952472;29;19978;-61
2023/01/13 08:42:34;;;;;;;;;;;;;;;-6.15;73.10;100474.53;4951728;28;19930;-60
2023/01/13 08:45:00;;;;;;;;;;;;;;;-6.15;73.37;100464.72;4949996;28;19934;-60
2023/01/13 08:47:26;;;;;;;;;;;;;;;-6.09;73.31;100481.06;4966434;28;19989;-61
2023/01/13 08:49:52;;;;;;;;;;;;;;;-6.08;73.04;100474.78;4967331;28;19930;-66
2023/01/13 08:52:17;;;;;;;;;;;;;;;-6.12;72.86;100459.09;4967605;28;20278;-67
2023/01/13 08:54:43;;;;;;;;;;;;;;;-6.08;73.05;100453.47;4970556;28;19985;-66
2023/01/13 08:57:09;;;;;;;;;;;;;;;-5.97;72.93;100477.19;4969363;28;19934;-66
2023/01/13 08:59:36;;;;;;;;;;;;;;;-5.93;72.69;100464.41;4968504;28;19930;-66
2023/01/13 09:02:03;;;;;;;;;;;;;;;-5.92;72.48;100474.09;4967421;28;19965;-66
2023/01/13 09:04:30;;;;;;;;;;;;;;;-5.98;72.74;100449.72;4971904;28;20377;-66
2023/01/13 09:06:55;;;;;;;;;;;;;;;-5.93;72.80;100453.75;4969566;28;20032;-66
2023/01/13 09:09:22;;;;;;;;;;;;;;;-5.92;72.61;100440.31;4971091;28;20044;-66
2023/01/13 09:14:35;;;;;;;;;;;;;;;-5.91;72.56;100452.63;4970175;28;19930;-66
2023/01/13 09:17:02;;;;;;;;;;;;;;;-5.95;72.88;100439.75;4968890;28;19962;-66
2023/01/13 09:19:29;;;;;;;;;;;;;;;-5.95;72.88;100445.91;4971705;28;20465;-66
2023/01/13 09:21:55;;;;;;;;;;;;;;;-5.98;72.78;100438.22;4967308;28;20057;-66
2023/01/13 09:24:22;;;;;;;;;;;;;;;-5.95;72.96;100445.09;4969366;28;19930;-66
2023/01/13 09:26:48;;;;;;;;;;;;;;;-5.93;73.05;100435.97;4968609;28;19993;-66
2023/01/13 09:29:14;;;;;;;;;;;;;;;-5.94;72.98;100441.44;4969662;28;20472;-66
2023/01/13 09:31:40;;;;;;;;;;;;;;;-5.98;73.03;100447.06;4970679;28;20365;-66
2023/01/13 09:36:54;;;;;;;;;;;;;;;-5.90;73.26;100434.81;4969334;28;20033;-66
2023/01/13 09:39:21;;;;;;;;;;;;;;;-5.98;73.10;100428.44;4981516;28;20085;-66
2023/01/13 09:44:41;;;;;;;;;;;;;;;-6.01;73.74;100423.41;4952268;28;19966;-66
2023/01/13 09:47:10;;;;;;;;;;;;;;;-5.95;73.76;100421.13;4951336;29;19934;-66
2023/01/13 09:49:39;;;;;;;;;;;;;;;-5.93;73.54;100427.13;4967165;28;20434;-66
2023/01/13 09:52:08;;;;;;;;;;;;;;;-5.95;73.68;100427.25;4979088;28;20040;-66
2023/01/13 09:54:37;;;;;;;;;;;;;;;-5.96;73.70;100417.59;4976997;28;19930;-67
2023/01/13 09:57:07;;;;;;;;;;;;;;;-5.94;73.38;100420.94;4969465;28;19930;-66
2023/01/13 09:59:35;;;;;;;;;;;;;;;-5.92;73.51;100413.66;4967707;28;20040;-67
2023/01/13 10:02:03;;;;;;;;;;;;;;;-5.87;73.54;100427.34;4968999;28;19930;-66
2023/01/13 10:04:29;;;;;;;;;;;;;;;-5.91;73.58;100420.66;4971819;28;19933;-66
2023/01/13 10:06:59;;;;;;;;;;;;;;;-5.91;73.33;100435.81;4969906;28;19938;-66
2023/01/13 10:09:26;;;;;;;;;;;;;;;-5.90;73.67;100448.13;4971152;28;20380;-66
2023/01/13 10:14:40;;;;;;;;;;;;;;;-5.99;73.88;100436.56;4968082;28;19930;-66
2023/01/13 10:17:11;;;;;;;;;;;;;;;-5.99;74.20;100433.88;4967679;28;19937;-66
2023/01/13 10:19:40;;;;;;;;;;;;;;;-5.95;74.17;100453.91;4969275;28;19965;-66
2023/01/13 10:22:19;;;;;;;;;;;;;;;-5.96;74.27;100428.25;4985136;28;20263;-66
2023/01/13 10:24:54;;;;;;;;;;;;;;;-5.98;74.56;100420.44;4969671;28;19930;-66
2023/01/13 10:27:24;;;;;;;;;;;;;;;-5.95;74.47;100427.25;4969201;28;20032;-66
2023/01/13 10:29:50;;;;;;;;;;;;;;;-5.98;74.85;100433.75;4968638;28;19930;-67
2023/01/13 10:32:16;;;;;;;;;;;;;;;-6.01;74.91;100426.06;4937421;29;19941;-66
2023/01/13 10:34:47;;;;;;;;;;;;;;;-6.05;75.20;100440.69;4950131;29;19930;-66
2023/01/13 10:37:19;;;;;;;;;;;;;;;-6.05;75.53;100435.34;4951975;28;19931;-66
2023/01/13 10:39:46;;;;;;;;;;;;;;;-6.04;75.32;100433.53;4949385;28;19985;-66
2023/01/13 10:42:13;;;;;;;;;;;;;;;-5.98;75.46;100427.56;4957389;28;19961;-66
2023/01/13 10:44:45;;;;;;;;;;;;;;;-5.93;75.45;100438.63;4973112;28;20406;-66
2023/01/13 10:47:18;;;;;;;;;;;;;;;-5.90;75.67;100440.13;4972940;28;19961;-66
2023/01/13 10:49:57;;;;;;;;;;;;;;;-5.95;75.58;100435.25;4971752;28;19957;-66
2023/01/13 10:52:26;;;;;;;;;;;;;;;-5.93;75.55;100432.47;4972748;28;20410;-66
2023/01/13 10:54:52;;;;;;;;;;;;;;;-5.94;75.89;100438.78;4970537;28;19976;-67
2023/01/13 10:57:18;;;;;;;;;;;;;;;-5.93;75.75;100438.63;4955718;28;19930;-66
2023/01/13 10:59:44;;;;;;;;;;;;;;;-5.93;75.77;100432.47;4972540;28;19930;-66
2023/01/13 11:02:16;;;;;;;;;;;;;;;-5.87;75.58;100454.00;4974465;28;19930;-66
2023/01/13 11:04:44;;;;;;;;;;;;;;;-5.84;75.37;100432.38;4972335;28;19930;-66
2023/01/13 11:07:17;;;;;;;;;;;;;;;-5.79;75.03;100439.91;4973183;28;20289;-68
2023/01/13 11:09:44;;;;;;;;;;;;;;;-5.81;75.10;100443.72;4971345;28;19953;-66
2023/01/13 11:12:25;;;;;;;;;;;;;;;-5.82;74.97;100439.38;4970970;28;19930;-66
2023/01/13 11:14:51;;;;;;;;;;;;;;;-5.81;75.21;100441.06;4970663;28;20556;-66
2023/01/13 11:17:28;;;;;;;;;;;;;;;-5.76;75.14;100430.78;4972789;28;20231;-66
2023/01/13 11:19:59;;;;;;;;;;;;;;;-5.72;74.64;100442.81;4971689;28;19930;-66
2023/01/13 11:22:28;;;;;;;;;;;;;;;-5.77;74.75;100437.94;4972059;28;20389;-66
2023/01/13 11:24:58;;;;;;;;;;;;;;;-5.74;74.95;100431.47;4986070;28;20383;-66
2023/01/13 11:27:29;;;;;;;;;;;;;;;-5.72;74.87;100429.50;4970396;28;19953;-66
2023/01/13 11:29:58;;;;;;;;;;;;;;;-5.68;74.92;100419.38;4972109;28;19956;-66
2023/01/13 11:32:24;;;;;;;;;;;;;;;-5.59;74.81;100431.75;4971117;28;20022;-66
2023/01/13 11:34:53;;;;;;;;;;;;;;;-5.60;74.18;100425.63;4971884;28;19979;-66
2023/01/13 11:37:21;;;;;;;;;;;;;;;-5.64;74.72;100420.72;4972257;28;20095;-66
2023/01/13 11:39:54;;;;;;;;;;;;;;;-5.61;74.65;100421.28;4971786;28;19934;-66
2023/01/13 11:42:24;;;;;;;;;;;;;;;-5.61;74.73;100437.25;4970625;28;19937;-66
2023/01/13 11:45:00;;;;;;;;;;;;;;;-5.66;74.58;100434.19;4970141;28;19930;-66
2023/01/13 11:47:26;;;;;;;;;;;;;;;-5.65;74.71;100440.38;4971756;28;19946;-66
2023/01/13 11:49:53;;;;;;;;;;;;;;;-5.66;74.85;100436.88;4969930;28;19937;-66
2023/01/13 11:52:22;;;;;;;;;;;;;;;-5.75;75.29;100429.81;4971131;28;19976;-66
2023/01/13 11:55:03;;;;;;;;;;;;;;;-5.75;75.23;100435.94;4968683;28;19969;-63
2023/01/13 11:57:53;;;;;;;;;;;;;;;-5.66;75.08;100439.53;4963996;28;19930;-60
2023/01/13 12:00:30;;;;;;;;;;;;;;;-5.68;75.01;100444.19;4894984;28;19931;-61
2023/01/13 12:03:05;;;;;;;;;;;;;;;-5.72;75.34;100440.97;4983744;28;20365;-61
2023/01/13 12:05:35;;;;;;;;;;;;;;;-5.81;75.59;100422.41;4967180;28;19936;-61
2023/01/13 12:08:15;;;;;;;;;;;;;;;-5.63;75.52;100438.41;4969830;28;20425;-60
2023/01/13 12:10:58;;;;;;;;;;;;;;;-5.59;75.32;100437.94;4969144;28;20024;-61
2023/01/13 12:13:29;;;;;;;;;;;;;;;-5.54;75.17;100440.16;4961803;28;20736;-61
2023/01/13 12:16:03;;;;;;;;;;;;;;;-5.48;75.17;100455.53;4950253;28;19936;-59
2023/01/13 12:18:49;;;;;;;;;;;;;;;-5.56;74.84;100440.28;4969610;28;20386;-62
2023/01/13 12:21:19;;;;;;;;;;;;;;;-5.61;75.33;100447.06;4960023;28;19953;-60
2023/01/13 12:23:51;;;;;;;;;;;;;;;-5.66;75.51;100439.53;4963115;28;19932;-60
2023/01/13 12:26:24;;;;;;;;;;;;;;;-5.69;75.74;100442.50;4952923;28;19930;-66
2023/01/13 12:28:59;;;;;;;;;;;;;;;-5.66;75.87;100452.84;4951082;28;20015;-66
2023/01/13 12:31:27;;;;;;;;;;;;;;;-5.65;76.10;100451.03;4961339;28;20166;-60
2023/01/13 12:34:09;;;;;;;;;;;;;;;-5.61;75.88;100458.59;4950820;28;20464;-66
2023/01/13 12:36:42;;;;;;;;;;;;;;;-5.66;75.78;100463.50;4963426;28;19962;-66
2023/01/13 12:39:14;;;;;;;;;;;;;;;-5.69;76.00;100455.84;4964744;28;19931;-66
2023/01/13 12:44:15;;;;;;;;;;;;;;;-5.70;76.23;100463.00;4965257;28;20025;-66
2023/01/13 12:44:29;;;;;;;;;;;;;;;-5.72;76.25;100458.81;4967018;28;19930;-61
2023/01/13 12:46:57;;;;;;;;;;;;;;;-5.71;76.39;100463.16;4968270;28;19997;-61
2023/01/13 12:49:24;;;;;;;;;;;;;;;-5.71;76.46;100476.47;4965961;28;19930;-61
2023/01/13 12:52:06;;;;;;;;;;;;;;;-5.72;76.59;100467.63;4981860;28;20503;-61
2023/01/13 12:54:50;;;;;;;;;;;;;;;-5.75;76.70;100469.78;4949151;28;19930;-59
2023/01/13 12:57:19;;;;;;;;;;;;;;;-5.76;76.87;100466.25;4966898;28;19926;-58
2023/01/13 13:00:05;;;;;;;;;;;;;;;-5.76;76.99;100460.94;4966653;28;20097;-61
2023/01/13 13:02:36;;;;;;;;;;;;;;;-5.73;76.90;100462.47;4968701;28;19930;-62
2023/01/13 13:05:21;;;;;;;;;;;;;;;-5.67;77.02;100456.50;4965270;28;19930;-65
2023/01/13 13:07:49;;;;;;;;;;;;;;;-5.67;76.94;100469.84;4981437;28;20026;-66
2023/01/13 13:10:17;;;;;;;;;;;;;;;-5.69;77.07;100466.50;4967628;28;19985;-65
2023/01/13 13:15:37;;;;;;;;;;;;;;;-5.74;77.37;100469.59;4968870;28;19930;-67
2023/01/13 13:18:26;;;;;;;;;;;;;;;-5.74;77.53;100480.25;4967835;28;19957;-65
2023/01/13 13:20:53;;;;;;;;;;;;;;;-5.73;77.36;100481.13;4968184;28;20393;-66
2023/01/13 13:23:43;;;;;;;;;;;;;;;-5.75;77.41;100475.09;4949345;28;19937;-65
2023/01/13 13:26:32;;;;;;;;;;;;;;;-5.72;77.51;100477.47;4966583;28;19930;-65